sensor_id;sensor_type;location;lat;lon;timestamp;temperature;humidity
71184;DHT22;58887;51.980;4.464;2022-10-16T00:00:34;15.46;71.02
71184;DHT22;58887;51.980;4.464;2022-10-16T00:03:00;15.61;70.80
71184;DHT22;58887;51.980;4.464;2022-10-16T00:05:26;15.59;70.72
71184;DHT22;58887;51.980;4.464;2022-10-16T00:07:51;15.59;70.72
71184;DHT22;58887;51.980;4.464;2022-10-16T00:10:17;15.56;70.39
71184;DHT22;58887;51.980;4.464;2022-10-16T00:12:42;15.58;70.55
71184;DHT22;58887;51.980;4.464;2022-10-16T00:15:08;15.61;70.31
71184;DHT22;58887;51.980;4.464;2022-10-16T00:17:34;15.55;70.34
71184;DHT22;58887;51.980;4.464;2022-10-16T00:19:59;15.59;70.27
71184;DHT22;58887;51.980;4.464;2022-10-16T00:22:25;15.65;70.08
71184;DHT22;58887;51.980;4.464;2022-10-16T00:24:50;15.63;70.60
71184;DHT22;58887;51.980;4.464;2022-10-16T00:27:16;15.58;70.76
71184;DHT22;58887;51.980;4.464;2022-10-16T00:29:42;15.63;70.63
71184;DHT22;58887;51.980;4.464;2022-10-16T00:32:08;15.70;70.41
71184;DHT22;58887;51.980;4.464;2022-10-16T00:34:33;15.66;70.85
71184;DHT22;58887;51.980;4.464;2022-10-16T00:36:59;15.66;71.08
71184;DHT22;58887;51.980;4.464;2022-10-16T00:39:24;15.72;71.23
71184;DHT22;58887;51.980;4.464;2022-10-16T00:41:50;15.62;71.94
71184;DHT22;58887;51.980;4.464;2022-10-16T00:47:27;15.55;72.63
71184;DHT22;58887;51.980;4.464;2022-10-16T00:49:58;15.54;72.82
71184;DHT22;58887;51.980;4.464;2022-10-16T00:52:24;15.42;73.50
71184;DHT22;58887;51.980;4.464;2022-10-16T00:54:53;15.42;73.67
71184;DHT22;58887;51.980;4.464;2022-10-16T00:57:20;15.38;74.07
71184;DHT22;58887;51.980;4.464;2022-10-16T00:59:45;15.35;74.42
71184;DHT22;58887;51.980;4.464;2022-10-16T01:02:15;15.27;74.96
71184;DHT22;58887;51.980;4.464;2022-10-16T01:04:58;15.21;75.61
71184;DHT22;58887;51.980;4.464;2022-10-16T01:18:21;14.91;77.72
71184;DHT22;58887;51.980;4.464;2022-10-16T01:28:32;14.73;78.91
71184;DHT22;58887;51.980;4.464;2022-10-16T01:31:01;14.63;79.25
71184;DHT22;58887;51.980;4.464;2022-10-16T01:33:40;14.59;79.08
71184;DHT22;58887;51.980;4.464;2022-10-16T01:36:17;14.59;79.07
71184;DHT22;58887;51.980;4.464;2022-10-16T01:38:49;14.56;78.87
71184;DHT22;58887;51.980;4.464;2022-10-16T01:41:31;14.50;79.26
71184;DHT22;58887;51.980;4.464;2022-10-16T01:44:06;14.49;79.30
71184;DHT22;58887;51.980;4.464;2022-10-16T01:46:36;14.52;79.48
71184;DHT22;58887;51.980;4.464;2022-10-16T01:49:03;14.49;79.37
71184;DHT22;58887;51.980;4.464;2022-10-16T01:51:29;14.50;79.44
71184;DHT22;58887;51.980;4.464;2022-10-16T01:53:58;14.56;79.27
71184;DHT22;58887;51.980;4.464;2022-10-16T01:56:25;14.62;79.09
71184;DHT22;58887;51.980;4.464;2022-10-16T01:59:00;14.66;78.97
71184;DHT22;58887;51.980;4.464;2022-10-16T02:01:30;14.60;79.17
71184;DHT22;58887;51.980;4.464;2022-10-16T02:04:02;14.62;79.09
71184;DHT22;58887;51.980;4.464;2022-10-16T02:06:29;14.57;79.19
71184;DHT22;58887;51.980;4.464;2022-10-16T02:08:55;14.63;78.97
71184;DHT22;58887;51.980;4.464;2022-10-16T02:11:21;14.59;79.13
71184;DHT22;58887;51.980;4.464;2022-10-16T02:13:59;14.63;78.84
71184;DHT22;58887;51.980;4.464;2022-10-16T02:16:44;14.57;79.07
71184;DHT22;58887;51.980;4.464;2022-10-16T02:19:14;14.52;79.41
71184;DHT22;58887;51.980;4.464;2022-10-16T02:21:44;14.56;79.26
71184;DHT22;58887;51.980;4.464;2022-10-16T02:29:20;14.70;78.72
71184;DHT22;58887;51.980;4.464;2022-10-16T02:31:58;14.74;78.51
71184;DHT22;58887;51.980;4.464;2022-10-16T02:34:28;14.70;78.70
71184;DHT22;58887;51.980;4.464;2022-10-16T02:36:57;14.76;78.57
71184;DHT22;58887;51.980;4.464;2022-10-16T02:39:26;14.83;78.34
71184;DHT22;58887;51.980;4.464;2022-10-16T02:41:52;14.70;78.99
71184;DHT22;58887;51.980;4.464;2022-10-16T02:44:17;14.60;79.31
71184;DHT22;58887;51.980;4.464;2022-10-16T02:46:43;14.67;79.17
71184;DHT22;58887;51.980;4.464;2022-10-16T02:49:08;14.67;78.95
71184;DHT22;58887;51.980;4.464;2022-10-16T02:51:34;14.64;79.07
71184;DHT22;58887;51.980;4.464;2022-10-16T02:53:59;14.52;79.57
71184;DHT22;58887;51.980;4.464;2022-10-16T02:56:24;14.50;79.67
71184;DHT22;58887;51.980;4.464;2022-10-16T02:58:50;14.55;79.73
71184;DHT22;58887;51.980;4.464;2022-10-16T03:01:15;14.60;79.43
71184;DHT22;58887;51.980;4.464;2022-10-16T03:03:42;14.50;79.76
71184;DHT22;58887;51.980;4.464;2022-10-16T03:06:07;14.53;79.76
71184;DHT22;58887;51.980;4.464;2022-10-16T03:08:33;14.57;79.61
71184;DHT22;58887;51.980;4.464;2022-10-16T03:10:58;14.57;79.80
71184;DHT22;58887;51.980;4.464;2022-10-16T03:13:23;14.62;79.73
71184;DHT22;58887;51.980;4.464;2022-10-16T03:15:49;14.59;79.81
71184;DHT22;58887;51.980;4.464;2022-10-16T03:18:15;14.63;79.81
71184;DHT22;58887;51.980;4.464;2022-10-16T03:20:42;14.66;79.69
71184;DHT22;58887;51.980;4.464;2022-10-16T03:23:07;14.67;79.73
71184;DHT22;58887;51.980;4.464;2022-10-16T03:25:33;14.73;79.56
71184;DHT22;58887;51.980;4.464;2022-10-16T03:27:58;14.63;79.84
71184;DHT22;58887;51.980;4.464;2022-10-16T03:30:24;14.59;80.07
71184;DHT22;58887;51.980;4.464;2022-10-16T03:32:49;14.56;79.78
71184;DHT22;58887;51.980;4.464;2022-10-16T03:35:22;14.62;79.36
71184;DHT22;58887;51.980;4.464;2022-10-16T03:37:48;14.76;79.04
71184;DHT22;58887;51.980;4.464;2022-10-16T03:40:13;14.83;78.71
71184;DHT22;58887;51.980;4.464;2022-10-16T03:42:39;14.81;78.73
71184;DHT22;58887;51.980;4.464;2022-10-16T03:45:05;14.79;78.78
71184;DHT22;58887;51.980;4.464;2022-10-16T03:47:31;14.83;78.56
71184;DHT22;58887;51.980;4.464;2022-10-16T03:49:59;14.87;78.24
71184;DHT22;58887;51.980;4.464;2022-10-16T03:52:24;14.91;78.25
71184;DHT22;58887;51.980;4.464;2022-10-16T03:54:50;14.86;78.43
71184;DHT22;58887;51.980;4.464;2022-10-16T03:57:16;14.81;78.67
71184;DHT22;58887;51.980;4.464;2022-10-16T03:59:42;14.83;78.86
71184;DHT22;58887;51.980;4.464;2022-10-16T04:02:07;14.84;78.80
71184;DHT22;58887;51.980;4.464;2022-10-16T04:04:33;14.74;79.28
71184;DHT22;58887;51.980;4.464;2022-10-16T04:06:58;14.70;79.56
71184;DHT22;58887;51.980;4.464;2022-10-16T04:09:24;14.74;79.61
71184;DHT22;58887;51.980;4.464;2022-10-16T04:11:49;14.74;79.55
71184;DHT22;58887;51.980;4.464;2022-10-16T04:14:14;14.69;79.75
71184;DHT22;58887;51.980;4.464;2022-10-16T04:16:40;14.66;79.98
71184;DHT22;58887;51.980;4.464;2022-10-16T04:19:05;14.60;80.35
71184;DHT22;58887;51.980;4.464;2022-10-16T04:21:31;14.63;80.36
71184;DHT22;58887;51.980;4.464;2022-10-16T04:23:56;14.63;80.42
71184;DHT22;58887;51.980;4.464;2022-10-16T04:26:21;14.62;80.65
71184;DHT22;58887;51.980;4.464;2022-10-16T04:28:47;14.60;80.78
71184;DHT22;58887;51.980;4.464;2022-10-16T04:31:12;14.66;80.64
71184;DHT22;58887;51.980;4.464;2022-10-16T04:33:38;14.47;81.22
71184;DHT22;58887;51.980;4.464;2022-10-16T04:36:03;14.52;81.21
71184;DHT22;58887;51.980;4.464;2022-10-16T04:38:30;14.59;80.94
71184;DHT22;58887;51.980;4.464;2022-10-16T04:40:55;14.63;80.96
71184;DHT22;58887;51.980;4.464;2022-10-16T04:43:21;14.62;80.93
71184;DHT22;58887;51.980;4.464;2022-10-16T04:45:47;14.62;81.02
71184;DHT22;58887;51.980;4.464;2022-10-16T04:48:15;14.57;81.10
71184;DHT22;58887;51.980;4.464;2022-10-16T04:50:41;14.69;80.84
71184;DHT22;58887;51.980;4.464;2022-10-16T04:53:06;14.69;80.81
71184;DHT22;58887;51.980;4.464;2022-10-16T04:55:32;14.62;81.00
71184;DHT22;58887;51.980;4.464;2022-10-16T04:57:58;14.66;81.08
71184;DHT22;58887;51.980;4.464;2022-10-16T05:00:23;14.63;80.97
71184;DHT22;58887;51.980;4.464;2022-10-16T05:02:52;14.57;80.94
71184;DHT22;58887;51.980;4.464;2022-10-16T05:05:18;14.67;80.79
71184;DHT22;58887;51.980;4.464;2022-10-16T05:07:45;14.74;80.65
71184;DHT22;58887;51.980;4.464;2022-10-16T05:10:11;14.76;80.50
71184;DHT22;58887;51.980;4.464;2022-10-16T05:12:36;14.86;80.18
71184;DHT22;58887;51.980;4.464;2022-10-16T05:15:02;14.90;80.33
71184;DHT22;58887;51.980;4.464;2022-10-16T05:17:28;15.00;80.07
71184;DHT22;58887;51.980;4.464;2022-10-16T05:19:53;14.91;80.65
71184;DHT22;58887;51.980;4.464;2022-10-16T05:22:19;14.86;81.03
71184;DHT22;58887;51.980;4.464;2022-10-16T05:24:44;14.86;81.39
71184;DHT22;58887;51.980;4.464;2022-10-16T05:27:10;14.66;82.24
71184;DHT22;58887;51.980;4.464;2022-10-16T05:29:36;14.47;82.96
71184;DHT22;58887;51.980;4.464;2022-10-16T05:32:01;14.62;82.57
71184;DHT22;58887;51.980;4.464;2022-10-16T05:34:27;14.62;82.83
71184;DHT22;58887;51.980;4.464;2022-10-16T05:36:52;14.55;82.95
71184;DHT22;58887;51.980;4.464;2022-10-16T05:39:18;14.56;82.71
71184;DHT22;58887;51.980;4.464;2022-10-16T05:41:44;14.57;82.76
71184;DHT22;58887;51.980;4.464;2022-10-16T05:44:10;14.57;82.79
71184;DHT22;58887;51.980;4.464;2022-10-16T05:46:35;14.49;82.21
71184;DHT22;58887;51.980;4.464;2022-10-16T05:49:01;14.55;82.46
71184;DHT22;58887;51.980;4.464;2022-10-16T05:51:26;14.57;81.93
71184;DHT22;58887;51.980;4.464;2022-10-16T05:53:52;14.56;82.23
71184;DHT22;58887;51.980;4.464;2022-10-16T05:56:17;14.50;82.08
71184;DHT22;58887;51.980;4.464;2022-10-16T05:58:43;14.50;81.93
71184;DHT22;58887;51.980;4.464;2022-10-16T06:01:18;14.47;81.59
71184;DHT22;58887;51.980;4.464;2022-10-16T06:03:46;14.53;81.66
71184;DHT22;58887;51.980;4.464;2022-10-16T06:06:15;14.57;81.07
71184;DHT22;58887;51.980;4.464;2022-10-16T06:08:42;14.55;80.95
71184;DHT22;58887;51.980;4.464;2022-10-16T06:11:10;14.56;81.01
71184;DHT22;58887;51.980;4.464;2022-10-16T06:13:36;14.57;80.96
71184;DHT22;58887;51.980;4.464;2022-10-16T06:16:03;14.63;80.91
71184;DHT22;58887;51.980;4.464;2022-10-16T06:18:29;14.66;80.12
71184;DHT22;58887;51.980;4.464;2022-10-16T06:20:56;14.60;79.49
71184;DHT22;58887;51.980;4.464;2022-10-16T06:23:22;14.60;78.85
71184;DHT22;58887;51.980;4.464;2022-10-16T06:25:48;14.63;78.65
71184;DHT22;58887;51.980;4.464;2022-10-16T06:28:14;14.62;78.04
71184;DHT22;58887;51.980;4.464;2022-10-16T06:30:40;14.66;77.70
71184;DHT22;58887;51.980;4.464;2022-10-16T06:33:06;14.67;77.27
71184;DHT22;58887;51.980;4.464;2022-10-16T06:35:31;14.64;77.70
71184;DHT22;58887;51.980;4.464;2022-10-16T06:37:57;14.52;78.97
71184;DHT22;58887;51.980;4.464;2022-10-16T06:40:23;14.52;79.65
71184;DHT22;58887;51.980;4.464;2022-10-16T06:42:48;14.52;80.10
71184;DHT22;58887;51.980;4.464;2022-10-16T06:45:14;14.45;80.90
71184;DHT22;58887;51.980;4.464;2022-10-16T06:47:39;14.60;80.53
71184;DHT22;58887;51.980;4.464;2022-10-16T06:50:05;14.66;80.75
71184;DHT22;58887;51.980;4.464;2022-10-16T06:52:33;14.64;80.83
71184;DHT22;58887;51.980;4.464;2022-10-16T06:54:59;14.55;81.21
71184;DHT22;58887;51.980;4.464;2022-10-16T06:57:24;14.50;81.04
71184;DHT22;58887;51.980;4.464;2022-10-16T06:59:50;14.57;80.70
71184;DHT22;58887;51.980;4.464;2022-10-16T07:02:15;14.53;80.83
71184;DHT22;58887;51.980;4.464;2022-10-16T07:04:41;14.57;80.66
71184;DHT22;58887;51.980;4.464;2022-10-16T07:07:06;14.45;81.38
71184;DHT22;58887;51.980;4.464;2022-10-16T07:09:32;14.55;81.12
71184;DHT22;58887;51.980;4.464;2022-10-16T07:11:57;14.62;80.87
71184;DHT22;58887;51.980;4.464;2022-10-16T07:14:22;14.69;80.74
71184;DHT22;58887;51.980;4.464;2022-10-16T07:16:48;14.70;80.79
71184;DHT22;58887;51.980;4.464;2022-10-16T07:19:15;14.74;80.88
71184;DHT22;58887;51.980;4.464;2022-10-16T07:21:43;14.91;80.18
71184;DHT22;58887;51.980;4.464;2022-10-16T07:24:13;14.83;80.48
71184;DHT22;58887;51.980;4.464;2022-10-16T07:26:39;14.90;80.22
71184;DHT22;58887;51.980;4.464;2022-10-16T07:29:07;15.08;79.91
71184;DHT22;58887;51.980;4.464;2022-10-16T07:31:36;15.12;79.53
71184;DHT22;58887;51.980;4.464;2022-10-16T07:34:01;15.18;79.27
71184;DHT22;58887;51.980;4.464;2022-10-16T07:36:27;15.24;78.98
71184;DHT22;58887;51.980;4.464;2022-10-16T07:38:52;15.41;78.94
71184;DHT22;58887;51.980;4.464;2022-10-16T07:41:19;15.49;78.68
71184;DHT22;58887;51.980;4.464;2022-10-16T07:43:52;15.49;78.08
71184;DHT22;58887;51.980;4.464;2022-10-16T07:46:21;15.52;78.08
71184;DHT22;58887;51.980;4.464;2022-10-16T07:48:47;15.72;77.70
71184;DHT22;58887;51.980;4.464;2022-10-16T07:51:16;15.92;76.90
71184;DHT22;58887;51.980;4.464;2022-10-16T07:53:41;16.04;76.33
71184;DHT22;58887;51.980;4.464;2022-10-16T07:56:07;16.18;75.84
71184;DHT22;58887;51.980;4.464;2022-10-16T07:58:34;16.17;75.75
71184;DHT22;58887;51.980;4.464;2022-10-16T08:01:11;16.23;75.27
71184;DHT22;58887;51.980;4.464;2022-10-16T08:03:37;16.44;75.40
71184;DHT22;58887;51.980;4.464;2022-10-16T08:06:04;16.83;73.53
71184;DHT22;58887;51.980;4.464;2022-10-16T08:08:30;16.99;72.08
71184;DHT22;58887;51.980;4.464;2022-10-16T08:10:56;17.18;71.91
71184;DHT22;58887;51.980;4.464;2022-10-16T08:13:21;17.46;71.11
71184;DHT22;58887;51.980;4.464;2022-10-16T08:15:47;17.55;70.80
71184;DHT22;58887;51.980;4.464;2022-10-16T08:18:14;17.67;70.91
71184;DHT22;58887;51.980;4.464;2022-10-16T08:20:40;17.57;70.53
71184;DHT22;58887;51.980;4.464;2022-10-16T08:23:07;18.02;69.15
71184;DHT22;58887;51.980;4.464;2022-10-16T08:25:35;17.98;69.84
71184;DHT22;58887;51.980;4.464;2022-10-16T08:28:04;18.30;68.26
71184;DHT22;58887;51.980;4.464;2022-10-16T08:30:31;18.09;68.80
71184;DHT22;58887;51.980;4.464;2022-10-16T08:32:56;18.05;69.33
71184;DHT22;58887;51.980;4.464;2022-10-16T08:35:23;18.28;68.20
71184;DHT22;58887;51.980;4.464;2022-10-16T08:37:50;18.33;67.97
71184;DHT22;58887;51.980;4.464;2022-10-16T08:40:23;18.09;69.20
71184;DHT22;58887;51.980;4.464;2022-10-16T08:46:11;18.22;68.53
71184;DHT22;58887;51.980;4.464;2022-10-16T08:48:47;18.40;68.45
71184;DHT22;58887;51.980;4.464;2022-10-16T08:51:30;18.57;67.82
71184;DHT22;58887;51.980;4.464;2022-10-16T08:53:58;18.69;66.85
71184;DHT22;58887;51.980;4.464;2022-10-16T08:56:25;18.83;66.98
71184;DHT22;58887;51.980;4.464;2022-10-16T08:58:53;18.81;66.36
71184;DHT22;58887;51.980;4.464;2022-10-16T09:01:21;18.94;66.30
71184;DHT22;58887;51.980;4.464;2022-10-16T09:04:42;18.79;66.96
71184;DHT22;58887;51.980;4.464;2022-10-16T09:07:41;19.01;66.47
71184;DHT22;58887;51.980;4.464;2022-10-16T09:10:46;19.31;65.26
71184;DHT22;58887;51.980;4.464;2022-10-16T09:13:35;19.27;65.15
71184;DHT22;58887;51.980;4.464;2022-10-16T09:19:27;19.63;63.76
71184;DHT22;58887;51.980;4.464;2022-10-16T09:21:55;19.62;64.67
71184;DHT22;58887;51.980;4.464;2022-10-16T09:24:24;19.70;64.58
71184;DHT22;58887;51.980;4.464;2022-10-16T09:26:50;20.43;62.05
71184;DHT22;58887;51.980;4.464;2022-10-16T09:29:18;20.26;62.77
71184;DHT22;58887;51.980;4.464;2022-10-16T09:31:47;19.29;64.45
71184;DHT22;58887;51.980;4.464;2022-10-16T09:36:46;19.25;64.68
71184;DHT22;58887;51.980;4.464;2022-10-16T09:39:12;19.76;63.11
71184;DHT22;58887;51.980;4.464;2022-10-16T09:41:41;18.89;64.98
71184;DHT22;58887;51.980;4.464;2022-10-16T09:44:27;18.11;67.34
71184;DHT22;58887;51.980;4.464;2022-10-16T09:47:05;18.19;68.00
71184;DHT22;58887;51.980;4.464;2022-10-16T09:49:31;18.57;65.55
71184;DHT22;58887;51.980;4.464;2022-10-16T09:52:12;18.48;66.72
71184;DHT22;58887;51.980;4.464;2022-10-16T09:54:56;18.55;65.86
71184;DHT22;58887;51.980;4.464;2022-10-16T09:57:22;18.80;64.74
71184;DHT22;58887;51.980;4.464;2022-10-16T09:59:50;18.42;66.35
71184;DHT22;58887;51.980;4.464;2022-10-16T10:02:19;18.25;67.32
71184;DHT22;58887;51.980;4.464;2022-10-16T10:04:53;17.95;68.83
71184;DHT22;58887;51.980;4.464;2022-10-16T10:07:36;17.71;67.23
71184;DHT22;58887;51.980;4.464;2022-10-16T10:10:05;17.33;68.00
71184;DHT22;58887;51.980;4.464;2022-10-16T10:12:32;17.37;68.24
71184;DHT22;58887;51.980;4.464;2022-10-16T10:15:14;17.32;68.37
71184;DHT22;58887;51.980;4.464;2022-10-16T10:17:54;17.30;68.04
71184;DHT22;58887;51.980;4.464;2022-10-16T10:20:32;17.44;68.30
71184;DHT22;58887;51.980;4.464;2022-10-16T10:23:01;17.39;68.30
71184;DHT22;58887;51.980;4.464;2022-10-16T10:26:16;17.49;68.95
71184;DHT22;58887;51.980;4.464;2022-10-16T10:32:09;19.47;62.35
71184;DHT22;58887;51.980;4.464;2022-10-16T10:46:04;20.33;56.61
71184;DHT22;58887;51.980;4.464;2022-10-16T10:49:10;19.82;57.93
71184;DHT22;58887;51.980;4.464;2022-10-16T10:54:37;18.87;61.02
71184;DHT22;58887;51.980;4.464;2022-10-16T10:57:17;19.65;59.52
71184;DHT22;58887;51.980;4.464;2022-10-16T11:05:28;20.36;56.91
71184;DHT22;58887;51.980;4.464;2022-10-16T11:08:19;20.78;53.95
71184;DHT22;58887;51.980;4.464;2022-10-16T11:10:58;21.71;51.88
71184;DHT22;58887;51.980;4.464;2022-10-16T11:16:25;21.02;51.77
71184;DHT22;58887;51.980;4.464;2022-10-16T11:19:02;20.36;53.11
71184;DHT22;58887;51.980;4.464;2022-10-16T11:21:36;21.84;50.77
71184;DHT22;58887;51.980;4.464;2022-10-16T11:27:29;22.80;47.66
71184;DHT22;58887;51.980;4.464;2022-10-16T11:30:02;22.43;49.31
71184;DHT22;58887;51.980;4.464;2022-10-16T11:32:49;22.82;48.74
71184;DHT22;58887;51.980;4.464;2022-10-16T11:35:28;22.60;49.56
71184;DHT22;58887;51.980;4.464;2022-10-16T11:38:02;23.22;47.14
71184;DHT22;58887;51.980;4.464;2022-10-16T11:40:31;23.40;46.47
71184;DHT22;58887;51.980;4.464;2022-10-16T11:43:25;22.09;47.18
71184;DHT22;58887;51.980;4.464;2022-10-16T11:45:55;21.95;48.61
71184;DHT22;58887;51.980;4.464;2022-10-16T11:48:24;21.98;47.37
71184;DHT22;58887;51.980;4.464;2022-10-16T11:50:53;22.38;45.31
71184;DHT22;58887;51.980;4.464;2022-10-16T11:56:20;22.28;46.72
71184;DHT22;58887;51.980;4.464;2022-10-16T11:58:59;21.98;46.62
71184;DHT22;58887;51.980;4.464;2022-10-16T12:01:44;21.77;46.75
71184;DHT22;58887;51.980;4.464;2022-10-16T12:04:29;22.33;46.01
71184;DHT22;58887;51.980;4.464;2022-10-16T12:07:09;23.00;44.30
71184;DHT22;58887;51.980;4.464;2022-10-16T12:09:39;21.39;47.02
71184;DHT22;58887;51.980;4.464;2022-10-16T12:12:27;20.51;49.08
71184;DHT22;58887;51.980;4.464;2022-10-16T12:15:02;19.96;50.31
71184;DHT22;58887;51.980;4.464;2022-10-16T12:17:38;21.35;47.72
71184;DHT22;58887;51.980;4.464;2022-10-16T12:25:34;21.68;47.39
71184;DHT22;58887;51.980;4.464;2022-10-16T12:28:04;21.71;46.17
71184;DHT22;58887;51.980;4.464;2022-10-16T12:30:34;22.25;46.30
71184;DHT22;58887;51.980;4.464;2022-10-16T12:33:21;22.26;46.19
71184;DHT22;58887;51.980;4.464;2022-10-16T12:35:48;22.21;46.38
71184;DHT22;58887;51.980;4.464;2022-10-16T12:38:21;22.31;45.68
71184;DHT22;58887;51.980;4.464;2022-10-16T12:41:00;22.32;44.82
71184;DHT22;58887;51.980;4.464;2022-10-16T12:43:39;22.63;44.88
71184;DHT22;58887;51.980;4.464;2022-10-16T12:48:34;22.01;43.37
71184;DHT22;58887;51.980;4.464;2022-10-16T12:56:47;22.28;44.40
71184;DHT22;58887;51.980;4.464;2022-10-16T13:02:01;22.31;44.93
71184;DHT22;58887;51.980;4.464;2022-10-16T13:07:56;21.44;47.43
71184;DHT22;58887;51.980;4.464;2022-10-16T13:18:43;20.18;49.18
71184;DHT22;58887;51.980;4.464;2022-10-16T13:24:13;19.96;49.08
71184;DHT22;58887;51.980;4.464;2022-10-16T13:29:22;19.94;49.94
71184;DHT22;58887;51.980;4.464;2022-10-16T13:31:49;19.83;50.68
71184;DHT22;58887;51.980;4.464;2022-10-16T13:34:19;19.96;52.06
71184;DHT22;58887;51.980;4.464;2022-10-16T13:36:49;19.85;52.23
71184;DHT22;58887;51.980;4.464;2022-10-16T13:39:35;19.73;52.63
71184;DHT22;58887;51.980;4.464;2022-10-16T13:42:10;19.62;53.44
71184;DHT22;58887;51.980;4.464;2022-10-16T13:44:46;19.78;53.45
71184;DHT22;58887;51.980;4.464;2022-10-16T13:47:23;19.70;54.03
71184;DHT22;58887;51.980;4.464;2022-10-16T13:50:11;19.49;55.03
71184;DHT22;58887;51.980;4.464;2022-10-16T13:52:36;19.68;54.77
71184;DHT22;58887;51.980;4.464;2022-10-16T13:55:04;19.80;55.23
71184;DHT22;58887;51.980;4.464;2022-10-16T13:57:35;19.87;55.36
71184;DHT22;58887;51.980;4.464;2022-10-16T14:00:00;19.87;56.45
71184;DHT22;58887;51.980;4.464;2022-10-16T14:02:27;19.85;56.53
71184;DHT22;58887;51.980;4.464;2022-10-16T14:04:56;19.92;56.80
71184;DHT22;58887;51.980;4.464;2022-10-16T14:07:26;19.68;57.73
71184;DHT22;58887;51.980;4.464;2022-10-16T14:09:53;19.82;57.79
71184;DHT22;58887;51.980;4.464;2022-10-16T14:12:21;19.76;58.18
71184;DHT22;58887;51.980;4.464;2022-10-16T14:14:51;19.75;57.96
71184;DHT22;58887;51.980;4.464;2022-10-16T14:17:33;19.52;58.68
71184;DHT22;58887;51.980;4.464;2022-10-16T14:20:02;19.58;58.04
71184;DHT22;58887;51.980;4.464;2022-10-16T14:24:55;19.75;57.47
71184;DHT22;58887;51.980;4.464;2022-10-16T14:27:33;19.56;57.58
71184;DHT22;58887;51.980;4.464;2022-10-16T14:30:26;19.61;57.63
71184;DHT22;58887;51.980;4.464;2022-10-16T14:32:58;19.48;58.74
71184;DHT22;58887;51.980;4.464;2022-10-16T14:35:32;19.51;58.58
71184;DHT22;58887;51.980;4.464;2022-10-16T14:38:00;19.49;58.80
71184;DHT22;58887;51.980;4.464;2022-10-16T14:40:35;19.52;57.60
71184;DHT22;58887;51.980;4.464;2022-10-16T14:43:02;19.55;58.88
71184;DHT22;58887;51.980;4.464;2022-10-16T14:45:32;19.38;57.12
71184;DHT22;58887;51.980;4.464;2022-10-16T14:48:03;19.34;56.72
71184;DHT22;58887;51.980;4.464;2022-10-16T14:50:30;19.47;56.62
71184;DHT22;58887;51.980;4.464;2022-10-16T14:52:55;19.31;57.01
71184;DHT22;58887;51.980;4.464;2022-10-16T14:55:21;19.29;57.07
71184;DHT22;58887;51.980;4.464;2022-10-16T14:57:47;19.25;57.13
71184;DHT22;58887;51.980;4.464;2022-10-16T15:00:22;19.21;58.41
71184;DHT22;58887;51.980;4.464;2022-10-16T15:02:49;19.17;59.31
71184;DHT22;58887;51.980;4.464;2022-10-16T15:05:19;18.98;59.31
71184;DHT22;58887;51.980;4.464;2022-10-16T15:07:45;18.91;59.30
71184;DHT22;58887;51.980;4.464;2022-10-16T15:10:13;18.93;60.60
71184;DHT22;58887;51.980;4.464;2022-10-16T15:12:39;18.93;60.11
71184;DHT22;58887;51.980;4.464;2022-10-16T15:15:25;18.90;62.42
71184;DHT22;58887;51.980;4.464;2022-10-16T15:17:54;18.90;64.61
71184;DHT22;58887;51.980;4.464;2022-10-16T15:20:26;18.87;61.67
71184;DHT22;58887;51.980;4.464;2022-10-16T15:22:52;18.84;60.80
71184;DHT22;58887;51.980;4.464;2022-10-16T15:25:34;18.87;59.78
71184;DHT22;58887;51.980;4.464;2022-10-16T15:28:03;18.80;62.27
71184;DHT22;58887;51.980;4.464;2022-10-16T15:30:29;18.73;63.19
71184;DHT22;58887;51.980;4.464;2022-10-16T15:32:55;18.69;61.90
71184;DHT22;58887;51.980;4.464;2022-10-16T15:35:20;18.61;62.61
71184;DHT22;58887;51.980;4.464;2022-10-16T15:37:47;18.64;62.66
71184;DHT22;58887;51.980;4.464;2022-10-16T15:40:14;18.64;63.11
71184;DHT22;58887;51.980;4.464;2022-10-16T15:42:40;18.59;62.61
71184;DHT22;58887;51.980;4.464;2022-10-16T15:45:06;18.52;62.93
71184;DHT22;58887;51.980;4.464;2022-10-16T15:47:32;18.46;64.97
71184;DHT22;58887;51.980;4.464;2022-10-16T15:49:57;18.40;65.39
71184;DHT22;58887;51.980;4.464;2022-10-16T15:52:23;18.32;66.64
71184;DHT22;58887;51.980;4.464;2022-10-16T15:54:48;18.22;66.85
71184;DHT22;58887;51.980;4.464;2022-10-16T15:57:14;18.21;65.13
71184;DHT22;58887;51.980;4.464;2022-10-16T15:59:39;18.19;65.74
71184;DHT22;58887;51.980;4.464;2022-10-16T16:02:05;18.19;65.55
71184;DHT22;58887;51.980;4.464;2022-10-16T16:04:31;18.15;65.81
71184;DHT22;58887;51.980;4.464;2022-10-16T16:06:56;18.11;66.94
71184;DHT22;58887;51.980;4.464;2022-10-16T16:09:22;18.09;67.22
71184;DHT22;58887;51.980;4.464;2022-10-16T16:11:48;18.04;68.08
71184;DHT22;58887;51.980;4.464;2022-10-16T16:14:14;17.97;68.78
71184;DHT22;58887;51.980;4.464;2022-10-16T16:16:40;17.92;68.85
71184;DHT22;58887;51.980;4.464;2022-10-16T16:19:07;17.78;69.67
71184;DHT22;58887;51.980;4.464;2022-10-16T16:21:33;17.66;70.33
71184;DHT22;58887;51.980;4.464;2022-10-16T16:23:59;17.53;71.44
71184;DHT22;58887;51.980;4.464;2022-10-16T16:26:27;17.40;71.51
71184;DHT22;58887;51.980;4.464;2022-10-16T16:28:55;17.30;71.75
71184;DHT22;58887;51.980;4.464;2022-10-16T16:31:27;17.26;71.95
71184;DHT22;58887;51.980;4.464;2022-10-16T16:33:52;17.24;72.02
71184;DHT22;58887;51.980;4.464;2022-10-16T16:36:18;17.18;72.83
71184;DHT22;58887;51.980;4.464;2022-10-16T16:38:45;17.13;73.24
71184;DHT22;58887;51.980;4.464;2022-10-16T16:41:22;17.08;73.15
71184;DHT22;58887;51.980;4.464;2022-10-16T16:43:48;17.03;73.35
71184;DHT22;58887;51.980;4.464;2022-10-16T16:46:17;16.99;73.54
71184;DHT22;58887;51.980;4.464;2022-10-16T16:48:43;16.91;73.46
71184;DHT22;58887;51.980;4.464;2022-10-16T16:51:11;16.86;73.44
71184;DHT22;58887;51.980;4.464;2022-10-16T16:53:41;16.85;72.89
71184;DHT22;58887;51.980;4.464;2022-10-16T16:56:07;16.83;72.65
71184;DHT22;58887;51.980;4.464;2022-10-16T16:58:33;16.83;72.44
71184;DHT22;58887;51.980;4.464;2022-10-16T17:00:59;16.83;72.66
71184;DHT22;58887;51.980;4.464;2022-10-16T17:03:34;16.82;72.39
71184;DHT22;58887;51.980;4.464;2022-10-16T17:06:07;16.83;72.15
71184;DHT22;58887;51.980;4.464;2022-10-16T17:08:36;16.91;71.93
71184;DHT22;58887;51.980;4.464;2022-10-16T17:11:03;16.89;72.21
71184;DHT22;58887;51.980;4.464;2022-10-16T17:13:33;16.91;72.10
71184;DHT22;58887;51.980;4.464;2022-10-16T17:16:01;16.92;71.71
71184;DHT22;58887;51.980;4.464;2022-10-16T17:18:26;16.93;72.13
71184;DHT22;58887;51.980;4.464;2022-10-16T17:20:52;16.91;72.23
71184;DHT22;58887;51.980;4.464;2022-10-16T17:23:19;16.91;71.81
71184;DHT22;58887;51.980;4.464;2022-10-16T17:25:45;16.88;72.06
71184;DHT22;58887;51.980;4.464;2022-10-16T17:28:12;16.86;72.42